KRTN/RTN METAR and TAF weather

Enter ICAO airport designator
Station Type Date Time Source
KRTN METAR 2019/08/23 14:53 UTC NOAA

KRTN 231453Z AUTO 10006KT 10SM CLR 17/09 A3015 RMK AO2 SLP131 T01720089 58001


Station Type Date Time Source
KRTN Decoded METAR 2019/08/23 14:53 UTC NOAA

Station name not available
Aug 23, 2019 - 10:53 AM EDT / 2019.08.23 1453 UTC
Wind: from the E (100 degrees) at 7 MPH (6 KT):0
Visibility: 10 mile(s):0
Sky conditions: clear
Temperature: 63.0 F (17.2 C)
Dew Point: 48.0 F (8.9 C)
Relative Humidity: 58%
Pressure (altimeter): 30.15 in. Hg (1020 hPa)
Pressure tendency: 0.00 inches (0.1 hPa) lower than three hours ago
ob: KRTN 231453Z AUTO 10006KT 10SM CLR 17/09 A3015 RMK AO2 SLP131 T01720089 58001
cycle: 15

Station Type Date Time Source
KRTN TAF UTC NOAA

Error!

Example: see airport list